createdAt,value
2022-08-16T00:02:22.264Z,30.42
2022-08-16T00:04:51.106Z,30.55
2022-08-16T00:07:18.830Z,31.70
2022-08-16T00:09:46.269Z,32.42
2022-08-16T00:12:17.899Z,32.45
2022-08-16T00:14:46.045Z,32.17
2022-08-16T00:17:18.810Z,27.70
2022-08-16T00:19:46.920Z,28.38
2022-08-16T00:22:16.806Z,30.42
2022-08-16T00:24:50.156Z,29.17
2022-08-16T00:27:18.988Z,29.52
2022-08-16T00:29:47.014Z,26.73
2022-08-16T00:32:18.100Z,26.45
2022-08-16T00:34:53.195Z,27.92
2022-08-16T00:37:24.689Z,28.10
2022-08-16T00:39:58.476Z,27.70
2022-08-16T00:42:30.495Z,26.83
2022-08-16T00:45:01.312Z,25.27
2022-08-16T00:47:35.020Z,24.38
2022-08-16T00:50:05.440Z,24.80
2022-08-16T00:52:38.768Z,25.65
2022-08-16T00:55:18.566Z,24.23
2022-08-16T00:58:00.077Z,23.42
2022-08-16T01:00:29.245Z,23.13
2022-08-16T01:02:57.660Z,24.55
2022-08-16T01:05:25.527Z,26.40
2022-08-16T01:07:54.772Z,27.35
2022-08-16T01:10:32.182Z,26.50
2022-08-16T01:13:04.579Z,26.40
2022-08-16T01:15:33.019Z,25.73
2022-08-16T01:18:01.031Z,24.90
2022-08-16T01:20:32.988Z,24.60
2022-08-16T01:23:08.889Z,23.75
2022-08-16T01:25:37.568Z,25.00
2022-08-16T01:28:07.565Z,26.17
2022-08-16T01:30:39.797Z,23.80
2022-08-16T01:33:17.090Z,23.63
2022-08-16T01:35:52.516Z,22.95
2022-08-16T01:38:28.891Z,22.45
2022-08-16T01:40:58.108Z,23.00
2022-08-16T01:43:31.230Z,26.60
2022-08-16T01:46:00.372Z,26.88
2022-08-16T01:48:48.430Z,27.13
2022-08-16T01:51:17.542Z,28.95
2022-08-16T01:53:45.215Z,28.48
2022-08-16T01:56:25.191Z,32.10
2022-08-16T01:58:54.968Z,30.17
2022-08-16T02:01:23.055Z,32.08
2022-08-16T02:06:34.164Z,33.58
2022-08-16T02:09:05.197Z,33.30
2022-08-16T02:11:48.536Z,33.00
2022-08-16T02:14:22.457Z,33.00
2022-08-16T02:16:54.834Z,32.25
2022-08-16T02:19:24.462Z,33.15
2022-08-16T02:22:34.909Z,32.63
2022-08-16T02:25:01.676Z,32.55
2022-08-16T02:27:30.939Z,32.47
2022-08-16T02:30:05.139Z,32.37
2022-08-16T02:32:51.314Z,30.95
2022-08-16T02:35:23.702Z,30.58
2022-08-16T02:37:53.109Z,30.55
2022-08-16T02:40:21.314Z,30.73
2022-08-16T02:42:50.710Z,31.58
2022-08-16T02:45:19.434Z,31.98
2022-08-16T02:48:00.421Z,33.30
2022-08-16T02:50:54.375Z,32.22
2022-08-16T02:53:23.347Z,31.42
2022-08-16T02:55:51.186Z,32.58
2022-08-16T02:58:19.180Z,32.60
2022-08-16T03:00:50.103Z,33.00
2022-08-16T03:03:18.010Z,33.35
2022-08-16T03:05:50.041Z,33.65
2022-08-16T03:08:51.983Z,34.63
2022-08-16T03:11:17.712Z,35.13
2022-08-16T03:13:51.152Z,33.90
2022-08-16T03:19:06.274Z,32.47
2022-08-16T03:21:37.763Z,33.30
2022-08-16T03:24:29.236Z,33.22
2022-08-16T03:27:01.821Z,33.90
2022-08-16T03:29:31.975Z,32.67
2022-08-16T03:32:01.446Z,33.20
2022-08-16T03:34:30.123Z,33.20
2022-08-16T03:36:57.845Z,33.17
2022-08-16T03:39:25.682Z,32.85
2022-08-16T03:41:59.711Z,32.72
2022-08-16T03:44:44.269Z,32.22
2022-08-16T03:47:19.035Z,32.35
2022-08-16T03:49:52.377Z,31.70
2022-08-16T03:52:23.497Z,32.78
2022-08-16T03:54:58.203Z,32.80
2022-08-16T03:57:32.021Z,29.58
2022-08-16T04:00:20.249Z,29.73
2022-08-16T04:03:07.330Z,30.50
2022-08-16T04:05:39.629Z,31.08
2022-08-16T04:08:22.821Z,33.85
2022-08-16T04:10:55.801Z,35.78
2022-08-16T04:14:00.745Z,37.42
2022-08-16T04:16:27.459Z,36.40
2022-08-16T04:19:02.132Z,37.47
2022-08-16T04:21:31.027Z,36.28
2022-08-16T04:23:59.969Z,36.50
2022-08-16T04:26:31.122Z,37.95
2022-08-16T04:29:16.222Z,38.47
2022-08-16T04:31:56.544Z,37.15
2022-08-16T04:34:26.765Z,35.65
2022-08-16T04:36:56.770Z,35.03
2022-08-16T04:39:46.135Z,36.50
2022-08-16T04:42:15.397Z,34.53
2022-08-16T04:44:54.615Z,35.17
2022-08-16T04:47:24.369Z,36.08
2022-08-16T04:49:52.788Z,35.75
2022-08-16T04:52:34.190Z,33.67
2022-08-16T04:55:04.031Z,34.33
2022-08-16T04:57:31.363Z,36.92
2022-08-16T04:59:59.110Z,37.10
2022-08-16T05:02:46.707Z,35.42
2022-08-16T05:05:23.329Z,36.92
2022-08-16T05:07:58.511Z,36.58
2022-08-16T05:10:27.941Z,37.28
2022-08-16T05:12:55.416Z,36.00
2022-08-16T05:15:24.558Z,31.92
2022-08-16T05:17:58.450Z,38.13
2022-08-16T05:20:39.084Z,35.58
2022-08-16T05:23:15.121Z,34.72
2022-08-16T05:25:48.248Z,37.70
2022-08-16T05:28:17.247Z,35.63
2022-08-16T05:30:46.059Z,39.60
2022-08-16T05:33:18.236Z,35.83
2022-08-16T05:35:55.020Z,36.03
2022-08-16T05:38:32.744Z,36.78
2022-08-16T05:41:06.704Z,36.90
2022-08-16T05:43:43.416Z,36.67
2022-08-16T05:46:28.952Z,35.25
2022-08-16T05:49:03.806Z,35.63
2022-08-16T05:51:39.899Z,34.30
2022-08-16T05:54:11.391Z,35.58
2022-08-16T05:56:43.153Z,33.17
2022-08-16T05:59:10.934Z,36.35
2022-08-16T06:01:39.154Z,38.40
2022-08-16T06:04:13.023Z,37.38
2022-08-16T06:06:41.876Z,37.08
2022-08-16T06:09:14.484Z,37.50
2022-08-16T06:11:45.324Z,35.85
2022-08-16T06:14:12.887Z,35.83
2022-08-16T06:16:42.301Z,36.10
2022-08-16T06:19:09.628Z,37.35
2022-08-16T06:21:38.112Z,32.50
2022-08-16T06:24:52.640Z,33.88
2022-08-16T06:26:58.134Z,34.53
2022-08-16T06:29:25.982Z,29.98
2022-08-16T06:31:54.387Z,31.15
2022-08-16T06:34:55.135Z,33.42
2022-08-16T06:37:11.113Z,31.10
2022-08-16T06:39:49.411Z,29.67
2022-08-16T06:42:18.868Z,31.80
2022-08-16T06:44:47.404Z,30.17
2022-08-16T06:47:17.282Z,30.55
2022-08-16T06:49:52.692Z,31.53
2022-08-16T06:53:00.024Z,33.45
2022-08-16T06:55:13.550Z,30.60
2022-08-16T06:57:42.000Z,30.42
2022-08-16T07:00:24.071Z,30.55
2022-08-16T07:02:53.806Z,27.33
2022-08-16T07:05:27.355Z,27.75
2022-08-16T07:08:11.615Z,26.63
2022-08-16T07:10:41.688Z,26.98
2022-08-16T07:13:12.761Z,24.00
2022-08-16T07:15:50.582Z,25.88
2022-08-16T07:18:20.259Z,25.52
2022-08-16T07:20:48.531Z,23.75
2022-08-16T07:23:16.259Z,23.88
2022-08-16T07:25:44.301Z,24.27
2022-08-16T07:28:20.952Z,23.13
2022-08-16T07:30:51.633Z,23.13
2022-08-16T07:33:53.640Z,24.17
2022-08-16T07:36:07.367Z,23.63
2022-08-16T07:38:36.874Z,24.33
2022-08-16T07:41:10.086Z,21.98
2022-08-16T07:43:40.549Z,23.02
2022-08-16T07:46:39.371Z,23.30
2022-08-16T07:49:02.604Z,23.90
2022-08-16T07:51:31.773Z,23.70
2022-08-16T07:54:02.449Z,24.13
2022-08-16T07:56:37.388Z,25.67
2022-08-16T07:59:05.018Z,25.20
2022-08-16T08:01:32.747Z,26.02
2022-08-16T08:04:02.569Z,26.63
2022-08-16T08:06:31.100Z,24.77
2022-08-16T08:08:59.240Z,26.10
2022-08-16T08:11:28.115Z,27.27
2022-08-16T08:14:03.241Z,26.30
2022-08-16T08:16:31.456Z,26.90
2022-08-16T08:19:03.136Z,24.60
2022-08-16T08:22:00.779Z,26.67
2022-08-16T08:24:19.472Z,24.45
2022-08-16T08:26:49.790Z,24.92
2022-08-16T08:29:22.488Z,27.10
2022-08-16T08:31:51.985Z,26.58
2022-08-16T08:34:22.158Z,24.70
2022-08-16T08:36:54.124Z,25.30
2022-08-16T08:39:21.880Z,24.88
2022-08-16T08:41:49.342Z,24.67
2022-08-16T08:44:29.865Z,24.95
2022-08-16T08:47:09.461Z,24.83
2022-08-16T08:49:50.476Z,25.27
2022-08-16T08:52:35.452Z,24.65
2022-08-16T08:55:10.723Z,23.73
2022-08-16T08:57:47.884Z,23.90
2022-08-16T09:00:17.796Z,22.17
2022-08-16T09:02:52.021Z,23.02
2022-08-16T09:05:20.507Z,22.48
2022-08-16T09:08:00.197Z,21.87
2022-08-16T09:10:30.581Z,20.48
2022-08-16T09:12:59.372Z,21.67
2022-08-16T09:15:33.274Z,20.35
2022-08-16T09:18:25.034Z,22.27
2022-08-16T09:20:59.583Z,22.38
2022-08-16T09:23:28.331Z,21.70
2022-08-16T09:25:55.574Z,22.58
2022-08-16T09:29:13.821Z,22.45
2022-08-16T09:31:10.826Z,22.70
2022-08-16T09:33:39.566Z,23.15
2022-08-16T09:36:12.015Z,22.23
2022-08-16T09:38:50.624Z,21.33
2022-08-16T09:41:18.163Z,22.65
2022-08-16T09:44:00.041Z,22.08
2022-08-16T09:46:44.640Z,20.27
2022-08-16T09:49:14.073Z,21.27
2022-08-16T09:51:43.111Z,20.90
2022-08-16T09:54:16.778Z,22.15
2022-08-16T09:56:52.196Z,20.75
2022-08-16T09:59:22.265Z,21.05
2022-08-16T10:01:51.567Z,20.60
2022-08-16T10:04:30.273Z,20.70
2022-08-16T10:09:45.076Z,19.38
2022-08-16T10:12:42.536Z,19.08
2022-08-16T10:15:15.559Z,18.90
2022-08-16T10:18:01.106Z,20.90
2022-08-16T10:20:31.424Z,20.27
2022-08-16T10:23:05.541Z,19.25
2022-08-16T10:27:17.314Z,20.05
2022-08-16T10:28:30.432Z,20.45
2022-08-16T10:31:03.464Z,20.23
2022-08-16T10:33:33.314Z,19.23
2022-08-16T10:36:03.875Z,20.35
2022-08-16T10:41:00.720Z,16.67
2022-08-16T10:43:31.200Z,17.13
2022-08-16T10:46:00.191Z,16.83
2022-08-16T10:48:29.289Z,16.83
2022-08-16T10:50:59.011Z,14.40
2022-08-16T10:53:32.472Z,15.52
2022-08-16T10:56:01.576Z,16.65
2022-08-16T10:58:34.590Z,15.70
2022-08-16T11:01:39.635Z,15.48
2022-08-16T11:03:57.032Z,17.75
2022-08-16T11:06:26.759Z,17.63
2022-08-16T11:14:30.505Z,16.30
2022-08-16T11:17:02.560Z,16.48
2022-08-16T11:20:00.586Z,18.10
2022-08-16T11:22:47.316Z,15.45
2022-08-16T11:25:59.621Z,17.13
2022-08-16T11:28:03.280Z,18.13
2022-08-16T11:30:39.125Z,15.32
2022-08-16T11:33:07.065Z,14.82
2022-08-16T11:38:47.577Z,13.98
2022-08-16T11:41:10.887Z,10.73
2022-08-16T11:43:41.639Z,13.23
2022-08-16T11:46:44.706Z,13.07
2022-08-16T11:48:58.282Z,11.80
2022-08-16T11:51:27.553Z,13.85
2022-08-16T11:53:54.834Z,10.93
2022-08-16T11:56:39.710Z,9.55
2022-08-16T11:59:09.950Z,12.95
2022-08-16T12:01:55.098Z,12.35
2022-08-16T12:04:27.304Z,13.23
2022-08-16T12:06:54.894Z,13.88
2022-08-16T12:09:24.846Z,13.20
2022-08-16T12:11:57.088Z,13.77
2022-08-16T12:14:24.219Z,13.95
2022-08-16T12:16:55.048Z,14.52
2022-08-16T12:19:35.586Z,13.57
2022-08-16T12:22:05.483Z,13.90
2022-08-16T12:24:45.778Z,13.20
2022-08-16T12:27:18.881Z,13.38
2022-08-16T12:29:46.282Z,11.65
2022-08-16T12:32:38.137Z,10.88
2022-08-16T12:35:03.054Z,9.38
2022-08-16T12:37:31.206Z,10.68
2022-08-16T12:39:58.801Z,10.07
2022-08-16T12:42:35.334Z,8.18
2022-08-16T12:45:07.298Z,8.20
2022-08-16T12:48:10.059Z,8.60
2022-08-16T12:50:41.216Z,7.80
2022-08-16T12:53:09.662Z,7.55
2022-08-16T12:55:42.070Z,8.32
2022-08-16T12:58:49.828Z,6.30
2022-08-16T13:03:28.991Z,5.70
2022-08-16T13:05:59.952Z,5.53
2022-08-16T13:08:30.728Z,4.80
2022-08-16T13:11:01.799Z,4.95
2022-08-16T13:13:29.759Z,5.50
2022-08-16T13:16:03.690Z,6.30
2022-08-16T13:18:34.628Z,6.20
2022-08-16T13:21:04.097Z,4.95
2022-08-16T13:23:31.572Z,5.20
2022-08-16T13:25:58.933Z,5.63
2022-08-16T13:28:26.168Z,5.30
2022-08-16T13:30:54.928Z,5.88
2022-08-16T13:33:29.769Z,7.22
2022-08-16T13:35:59.014Z,6.22
2022-08-16T13:38:31.500Z,6.70
2022-08-16T13:41:05.524Z,6.30
2022-08-16T13:43:35.881Z,6.38
2022-08-16T13:46:05.594Z,6.60
2022-08-16T13:48:42.641Z,6.22
2022-08-16T13:51:16.707Z,6.53
2022-08-16T13:53:45.139Z,6.38
2022-08-16T13:56:24.820Z,7.13
2022-08-16T13:58:55.062Z,6.78
2022-08-16T14:01:23.983Z,7.90
2022-08-16T14:03:54.572Z,7.53
2022-08-16T14:06:23.054Z,7.50
2022-08-16T14:08:59.121Z,7.38
2022-08-16T14:11:33.522Z,8.73
2022-08-16T14:14:01.898Z,7.15
2022-08-16T14:16:35.074Z,7.10
2022-08-16T14:19:03.268Z,7.50
2022-08-16T14:21:35.012Z,7.13
2022-08-16T14:24:12.901Z,6.72
2022-08-16T14:26:52.962Z,6.70
2022-08-16T14:29:20.428Z,6.68
2022-08-16T14:31:53.658Z,7.10
2022-08-16T14:34:21.784Z,7.80
2022-08-16T14:36:53.642Z,6.88
2022-08-16T14:39:22.222Z,7.13
2022-08-16T14:41:53.591Z,8.10
2022-08-16T14:44:23.612Z,8.68
2022-08-16T14:46:51.021Z,8.35
2022-08-16T14:49:20.088Z,9.65
2022-08-16T14:51:48.822Z,9.18
2022-08-16T14:54:16.304Z,8.77
2022-08-16T14:56:46.838Z,10.70
2022-08-16T14:59:22.568Z,10.38
2022-08-16T15:01:58.589Z,9.50
2022-08-16T15:04:39.254Z,8.60
2022-08-16T15:07:10.878Z,8.40
2022-08-16T15:09:44.468Z,8.65
2022-08-16T15:12:30.967Z,7.55
2022-08-16T15:15:01.789Z,7.45
2022-08-16T15:17:34.045Z,6.70
2022-08-16T15:20:08.813Z,6.32
2022-08-16T15:22:38.632Z,6.85
2022-08-16T15:25:08.401Z,6.93
2022-08-16T15:27:41.856Z,6.57
2022-08-16T15:30:57.480Z,4.78
2022-08-16T15:33:01.820Z,5.63
2022-08-16T15:35:29.911Z,5.88
2022-08-16T15:37:57.790Z,4.47
2022-08-16T15:40:32.240Z,5.13
2022-08-16T15:43:03.911Z,5.38
2022-08-16T15:45:55.699Z,4.95
2022-08-16T15:48:28.652Z,5.97
2022-08-16T15:50:58.393Z,5.70
2022-08-16T15:53:30.810Z,6.80
2022-08-16T15:55:59.179Z,6.25
2022-08-16T15:58:35.269Z,6.40
2022-08-16T16:01:05.807Z,5.47
2022-08-16T16:03:34.755Z,5.18
2022-08-16T16:06:02.770Z,5.43
2022-08-16T16:08:31.505Z,5.40
2022-08-16T16:11:03.408Z,6.07
2022-08-16T16:13:32.492Z,5.70
2022-08-16T16:16:02.967Z,6.15
2022-08-16T16:18:34.461Z,6.35
2022-08-16T16:21:09.613Z,6.32
2022-08-16T16:23:41.252Z,5.70
2022-08-16T16:26:19.962Z,7.00
2022-08-16T16:29:05.228Z,6.60
2022-08-16T16:31:36.190Z,5.63
2022-08-16T16:34:04.339Z,5.88
2022-08-16T16:36:33.366Z,6.32
2022-08-16T16:39:06.042Z,5.65
2022-08-16T16:41:35.271Z,5.80
2022-08-16T16:44:03.429Z,5.95
2022-08-16T16:46:42.656Z,6.35
2022-08-16T16:49:11.930Z,6.70
2022-08-16T16:51:44.698Z,7.45
2022-08-16T16:54:27.996Z,7.25
2022-08-16T16:56:56.040Z,7.60
2022-08-16T16:59:25.610Z,8.25
2022-08-16T17:01:57.699Z,7.28
2022-08-16T17:04:42.768Z,7.00
2022-08-16T17:07:10.856Z,6.50
2022-08-16T17:09:39.330Z,6.95
2022-08-16T17:12:08.987Z,7.43
2022-08-16T17:14:38.572Z,7.47
2022-08-16T17:17:11.652Z,7.78
2022-08-16T17:19:41.799Z,7.63
2022-08-16T17:22:14.361Z,7.72
2022-08-16T17:24:45.263Z,7.85
2022-08-16T17:27:32.655Z,7.55
2022-08-16T17:30:01.570Z,7.43
2022-08-16T17:32:33.949Z,7.15
2022-08-16T17:35:18.294Z,7.22
2022-08-16T17:37:51.731Z,7.10
2022-08-16T17:40:30.226Z,7.30
2022-08-16T17:43:10.240Z,7.00
2022-08-16T17:45:39.102Z,7.47
2022-08-16T17:48:06.494Z,7.55
2022-08-16T17:50:33.877Z,6.60
2022-08-16T17:53:03.243Z,5.97
2022-08-16T17:55:33.305Z,6.60
2022-08-16T17:58:01.213Z,6.47
2022-08-16T18:00:38.397Z,5.80
2022-08-16T18:03:06.104Z,5.60
2022-08-16T18:05:33.665Z,5.85
2022-08-16T18:08:00.815Z,5.70
2022-08-16T18:10:33.441Z,5.60
2022-08-16T18:13:03.708Z,5.25
2022-08-16T18:15:31.100Z,5.40
2022-08-16T18:17:58.400Z,5.75
2022-08-16T18:20:45.669Z,5.47
2022-08-16T18:23:17.617Z,5.88
2022-08-16T18:25:47.323Z,6.20
2022-08-16T18:28:14.728Z,7.40
2022-08-16T18:30:42.511Z,7.82
2022-08-16T18:33:09.901Z,8.68
2022-08-16T18:35:37.822Z,7.63
2022-08-16T18:38:08.516Z,8.27
2022-08-16T18:40:35.903Z,7.93
2022-08-16T18:43:05.198Z,8.05
2022-08-16T18:45:37.009Z,7.70
2022-08-16T18:48:05.102Z,7.82
2022-08-16T18:50:58.853Z,7.22
2022-08-16T18:53:20.533Z,7.00
2022-08-16T18:55:48.507Z,7.22
2022-08-16T18:58:16.489Z,7.03
2022-08-16T19:00:56.566Z,7.03
2022-08-16T19:03:26.504Z,6.88
2022-08-16T19:06:04.905Z,7.20
2022-08-16T19:08:34.778Z,8.18
2022-08-16T19:11:02.032Z,8.10
2022-08-16T19:13:29.925Z,8.20
2022-08-16T19:15:58.375Z,7.30
2022-08-16T19:18:26.915Z,8.75
2022-08-16T19:21:01.494Z,9.75
2022-08-16T19:23:32.065Z,10.23
2022-08-16T19:26:00.544Z,14.02
2022-08-16T19:28:48.903Z,14.95
2022-08-16T19:31:18.348Z,14.55
2022-08-16T19:33:54.527Z,17.13
2022-08-16T19:36:30.999Z,15.25
2022-08-16T19:39:05.011Z,15.23
2022-08-16T19:41:33.520Z,16.70
2022-08-16T19:44:00.736Z,15.98
2022-08-16T19:46:28.089Z,16.00
2022-08-16T19:48:55.324Z,15.50
2022-08-16T19:51:22.713Z,14.98
2022-08-16T19:53:49.858Z,15.68
2022-08-16T19:56:18.756Z,15.55
2022-08-16T19:59:08.918Z,15.88
2022-08-16T20:01:37.373Z,15.32
2022-08-16T20:04:08.372Z,15.90
2022-08-16T20:06:38.594Z,14.10
2022-08-16T20:09:06.380Z,15.50
2022-08-16T20:11:35.758Z,16.52
2022-08-16T20:14:03.405Z,14.38
2022-08-16T20:16:30.690Z,15.35
2022-08-16T20:19:05.402Z,14.95
2022-08-16T20:21:33.061Z,17.20
2022-08-16T20:24:22.570Z,18.40
2022-08-16T20:26:47.672Z,19.95
2022-08-16T20:29:15.983Z,21.13
2022-08-16T20:31:45.253Z,21.50
2022-08-16T20:34:12.754Z,21.20
2022-08-16T20:36:40.265Z,22.10
2022-08-16T20:39:07.824Z,24.70
2022-08-16T20:41:37.076Z,25.38
2022-08-16T20:44:04.583Z,24.67
2022-08-16T20:46:39.742Z,25.48
2022-08-16T20:49:09.134Z,27.02
2022-08-16T20:51:49.579Z,26.17
2022-08-16T20:56:45.502Z,24.58
2022-08-16T20:59:12.874Z,24.67
2022-08-16T21:01:46.266Z,24.50
2022-08-16T21:04:18.750Z,25.40
2022-08-16T21:06:53.713Z,24.27
2022-08-16T21:09:23.408Z,25.20
2022-08-16T21:11:52.662Z,23.17
2022-08-16T21:14:20.256Z,23.88
2022-08-16T21:16:47.779Z,22.88
2022-08-16T21:19:15.227Z,23.75
2022-08-16T21:21:42.718Z,22.80
2022-08-16T21:24:09.971Z,22.85
2022-08-16T21:26:39.080Z,22.58
2022-08-16T21:29:07.704Z,23.17
2022-08-16T21:31:40.291Z,22.73
2022-08-16T21:34:08.181Z,22.42
2022-08-16T21:36:36.701Z,21.88
2022-08-16T21:39:05.714Z,23.55
2022-08-16T21:41:33.368Z,22.58
2022-08-16T21:44:00.481Z,22.17
2022-08-16T21:46:27.794Z,21.80
2022-08-16T21:48:55.020Z,20.35
2022-08-16T21:51:23.194Z,21.00
2022-08-16T21:53:51.487Z,21.77
2022-08-16T21:56:21.091Z,21.30
2022-08-16T21:58:53.285Z,21.65
2022-08-16T22:01:22.765Z,21.30
2022-08-16T22:04:05.777Z,19.23
2022-08-16T22:06:38.362Z,22.70
2022-08-16T22:09:05.926Z,21.70
2022-08-16T22:11:33.570Z,25.48
2022-08-16T22:14:01.064Z,23.48
2022-08-16T22:16:29.762Z,24.30
2022-08-16T22:18:57.029Z,25.73
2022-08-16T22:21:24.725Z,24.92
2022-08-16T22:23:56.701Z,26.90
2022-08-16T22:26:31.292Z,26.67
2022-08-16T22:29:06.070Z,27.58
2022-08-16T22:31:36.932Z,28.90
2022-08-16T22:36:32.927Z,29.02
2022-08-16T22:39:03.629Z,30.10
2022-08-16T22:41:32.333Z,30.88
2022-08-16T22:44:02.169Z,31.70
2022-08-16T22:46:30.383Z,32.90
2022-08-16T22:48:57.709Z,31.45
2022-08-16T22:51:26.092Z,32.08
2022-08-16T22:53:53.886Z,33.92
2022-08-16T22:56:23.491Z,33.15
2022-08-16T22:58:51.148Z,32.80
2022-08-16T23:01:20.258Z,34.75
2022-08-16T23:03:47.654Z,34.05
2022-08-16T23:06:15.133Z,34.72
2022-08-16T23:08:43.006Z,34.05
2022-08-16T23:11:11.337Z,36.08
2022-08-16T23:13:52.507Z,37.40
2022-08-16T23:16:33.662Z,35.17
2022-08-16T23:19:06.706Z,36.70
2022-08-16T23:21:37.082Z,37.55
2022-08-16T23:24:06.607Z,36.42
2022-08-16T23:26:47.947Z,36.80
2022-08-16T23:29:26.042Z,38.63
2022-08-16T23:32:10.781Z,37.67
2022-08-16T23:34:41.271Z,36.58
2022-08-16T23:37:09.561Z,35.78
2022-08-16T23:39:36.963Z,37.30
2022-08-16T23:42:11.594Z,36.95
2022-08-16T23:44:55.844Z,37.83
2022-08-16T23:47:26.491Z,37.60
2022-08-16T23:50:01.062Z,37.45
2022-08-16T23:52:40.506Z,37.45
2022-08-16T23:55:18.257Z,37.28
2022-08-16T23:57:46.017Z,36.42
